sensor_id;sensor_type;location;lat;lon;timestamp;P1;durP1;ratioP1;P2;durP2;ratioP2
32393;SDS011;18853;45.426;9.206;2023-04-24T00:00:04;10.23;;;4.93;;
32393;SDS011;18853;45.426;9.206;2023-04-24T00:02:31;8.70;;;4.93;;
32393;SDS011;18853;45.426;9.206;2023-04-24T00:04:57;6.40;;;4.97;;
32393;SDS011;18853;45.426;9.206;2023-04-24T00:07:28;6.95;;;5.15;;
32393;SDS011;18853;45.426;9.206;2023-04-24T00:09:54;9.82;;;5.07;;
32393;SDS011;18853;45.426;9.206;2023-04-24T00:12:20;7.65;;;4.97;;
32393;SDS011;18853;45.426;9.206;2023-04-24T00:14:46;9.50;;;5.35;;
32393;SDS011;18853;45.426;9.206;2023-04-24T00:17:12;8.98;;;5.07;;
32393;SDS011;18853;45.426;9.206;2023-04-24T00:19:38;7.95;;;5.40;;
32393;SDS011;18853;45.426;9.206;2023-04-24T00:22:03;7.63;;;5.18;;
32393;SDS011;18853;45.426;9.206;2023-04-24T00:24:30;7.45;;;5.45;;
32393;SDS011;18853;45.426;9.206;2023-04-24T00:26:56;8.70;;;5.13;;
32393;SDS011;18853;45.426;9.206;2023-04-24T00:29:22;6.72;;;4.90;;
32393;SDS011;18853;45.426;9.206;2023-04-24T00:31:48;9.65;;;5.40;;
32393;SDS011;18853;45.426;9.206;2023-04-24T00:34:13;8.90;;;5.32;;
32393;SDS011;18853;45.426;9.206;2023-04-24T00:36:39;7.38;;;5.40;;
32393;SDS011;18853;45.426;9.206;2023-04-24T00:39:05;6.60;;;5.28;;
32393;SDS011;18853;45.426;9.206;2023-04-24T00:41:33;7.70;;;5.45;;
32393;SDS011;18853;45.426;9.206;2023-04-24T00:44:00;8.95;;;5.65;;
32393;SDS011;18853;45.426;9.206;2023-04-24T00:46:25;8.70;;;5.40;;
32393;SDS011;18853;45.426;9.206;2023-04-24T00:48:51;7.70;;;5.35;;
32393;SDS011;18853;45.426;9.206;2023-04-24T00:51:17;8.52;;;5.50;;
32393;SDS011;18853;45.426;9.206;2023-04-24T00:53:43;9.23;;;5.75;;
32393;SDS011;18853;45.426;9.206;2023-04-24T00:56:08;8.20;;;5.72;;
32393;SDS011;18853;45.426;9.206;2023-04-24T00:58:35;9.80;;;6.03;;
32393;SDS011;18853;45.426;9.206;2023-04-24T01:01:00;8.93;;;5.35;;
32393;SDS011;18853;45.426;9.206;2023-04-24T01:03:28;7.80;;;5.32;;
32393;SDS011;18853;45.426;9.206;2023-04-24T01:05:56;8.93;;;5.55;;
32393;SDS011;18853;45.426;9.206;2023-04-24T01:08:23;8.10;;;5.53;;
32393;SDS011;18853;45.426;9.206;2023-04-24T01:10:52;8.38;;;5.50;;
32393;SDS011;18853;45.426;9.206;2023-04-24T01:13:19;8.82;;;5.07;;
32393;SDS011;18853;45.426;9.206;2023-04-24T01:15:45;8.15;;;5.40;;
32393;SDS011;18853;45.426;9.206;2023-04-24T01:18:11;7.50;;;5.38;;
32393;SDS011;18853;45.426;9.206;2023-04-24T01:20:39;7.70;;;5.65;;
32393;SDS011;18853;45.426;9.206;2023-04-24T01:23:06;9.35;;;6.32;;
32393;SDS011;18853;45.426;9.206;2023-04-24T01:25:32;7.13;;;4.97;;
32393;SDS011;18853;45.426;9.206;2023-04-24T01:27:58;7.57;;;5.35;;
32393;SDS011;18853;45.426;9.206;2023-04-24T01:30:24;7.75;;;5.32;;
32393;SDS011;18853;45.426;9.206;2023-04-24T01:32:51;8.77;;;5.30;;
32393;SDS011;18853;45.426;9.206;2023-04-24T01:35:17;8.32;;;5.50;;
32393;SDS011;18853;45.426;9.206;2023-04-24T01:37:43;10.30;;;5.75;;
32393;SDS011;18853;45.426;9.206;2023-04-24T01:40:09;9.35;;;6.00;;
32393;SDS011;18853;45.426;9.206;2023-04-24T01:42:35;13.15;;;5.95;;
32393;SDS011;18853;45.426;9.206;2023-04-24T01:45:02;8.48;;;5.82;;
32393;SDS011;18853;45.426;9.206;2023-04-24T01:47:29;7.72;;;5.88;;
32393;SDS011;18853;45.426;9.206;2023-04-24T01:49:56;8.90;;;6.03;;
32393;SDS011;18853;45.426;9.206;2023-04-24T01:52:22;8.95;;;5.80;;
32393;SDS011;18853;45.426;9.206;2023-04-24T01:54:48;8.07;;;5.80;;
32393;SDS011;18853;45.426;9.206;2023-04-24T01:57:14;8.52;;;5.90;;
32393;SDS011;18853;45.426;9.206;2023-04-24T01:59:41;8.93;;;6.15;;
32393;SDS011;18853;45.426;9.206;2023-04-24T02:02:06;9.00;;;6.40;;
32393;SDS011;18853;45.426;9.206;2023-04-24T02:04:32;7.32;;;6.28;;
32393;SDS011;18853;45.426;9.206;2023-04-24T02:06:58;7.50;;;6.20;;
32393;SDS011;18853;45.426;9.206;2023-04-24T02:09:23;9.02;;;6.18;;
32393;SDS011;18853;45.426;9.206;2023-04-24T02:11:50;9.20;;;6.43;;
32393;SDS011;18853;45.426;9.206;2023-04-24T02:14:15;8.75;;;6.68;;
32393;SDS011;18853;45.426;9.206;2023-04-24T02:16:41;9.05;;;6.68;;
32393;SDS011;18853;45.426;9.206;2023-04-24T02:19:07;9.05;;;6.65;;
32393;SDS011;18853;45.426;9.206;2023-04-24T02:21:33;7.68;;;6.47;;
32393;SDS011;18853;45.426;9.206;2023-04-24T02:23:59;8.43;;;6.47;;
32393;SDS011;18853;45.426;9.206;2023-04-24T02:26:25;11.48;;;7.63;;
32393;SDS011;18853;45.426;9.206;2023-04-24T02:28:51;8.27;;;6.90;;
32393;SDS011;18853;45.426;9.206;2023-04-24T02:31:16;9.27;;;6.60;;
32393;SDS011;18853;45.426;9.206;2023-04-24T02:33:42;10.55;;;7.20;;
32393;SDS011;18853;45.426;9.206;2023-04-24T02:36:08;10.35;;;7.60;;
32393;SDS011;18853;45.426;9.206;2023-04-24T02:38:33;8.90;;;7.22;;
32393;SDS011;18853;45.426;9.206;2023-04-24T02:40:59;11.82;;;7.50;;
32393;SDS011;18853;45.426;9.206;2023-04-24T02:43:27;10.15;;;7.38;;
32393;SDS011;18853;45.426;9.206;2023-04-24T02:45:52;11.02;;;8.05;;
32393;SDS011;18853;45.426;9.206;2023-04-24T02:48:18;9.18;;;6.72;;
32393;SDS011;18853;45.426;9.206;2023-04-24T02:50:45;10.60;;;7.20;;
32393;SDS011;18853;45.426;9.206;2023-04-24T02:53:11;9.75;;;7.05;;
32393;SDS011;18853;45.426;9.206;2023-04-24T02:55:37;8.60;;;7.38;;
32393;SDS011;18853;45.426;9.206;2023-04-24T02:58:03;8.45;;;7.28;;
32393;SDS011;18853;45.426;9.206;2023-04-24T03:00:28;11.88;;;8.05;;
32393;SDS011;18853;45.426;9.206;2023-04-24T03:02:55;9.73;;;7.50;;
32393;SDS011;18853;45.426;9.206;2023-04-24T03:05:20;10.75;;;7.82;;
32393;SDS011;18853;45.426;9.206;2023-04-24T03:07:46;9.60;;;7.63;;
32393;SDS011;18853;45.426;9.206;2023-04-24T03:10:12;10.35;;;7.85;;
32393;SDS011;18853;45.426;9.206;2023-04-24T03:12:37;9.63;;;7.70;;
32393;SDS011;18853;45.426;9.206;2023-04-24T03:15:03;8.98;;;7.32;;
32393;SDS011;18853;45.426;9.206;2023-04-24T03:17:30;9.50;;;7.88;;
32393;SDS011;18853;45.426;9.206;2023-04-24T03:19:55;9.77;;;7.63;;
32393;SDS011;18853;45.426;9.206;2023-04-24T03:22:21;9.38;;;8.15;;
32393;SDS011;18853;45.426;9.206;2023-04-24T03:24:47;10.93;;;8.52;;
32393;SDS011;18853;45.426;9.206;2023-04-24T03:27:12;10.57;;;7.80;;
32393;SDS011;18853;45.426;9.206;2023-04-24T03:29:38;10.35;;;8.13;;
32393;SDS011;18853;45.426;9.206;2023-04-24T03:32:04;11.20;;;8.48;;
32393;SDS011;18853;45.426;9.206;2023-04-24T03:34:29;11.43;;;8.10;;
32393;SDS011;18853;45.426;9.206;2023-04-24T03:36:55;11.18;;;9.05;;
32393;SDS011;18853;45.426;9.206;2023-04-24T03:39:21;11.77;;;8.75;;
32393;SDS011;18853;45.426;9.206;2023-04-24T03:41:46;13.10;;;8.73;;
32393;SDS011;18853;45.426;9.206;2023-04-24T03:44:12;10.85;;;8.35;;
32393;SDS011;18853;45.426;9.206;2023-04-24T03:46:37;10.35;;;8.27;;
32393;SDS011;18853;45.426;9.206;2023-04-24T03:49:03;11.57;;;8.85;;
32393;SDS011;18853;45.426;9.206;2023-04-24T03:51:29;13.35;;;9.48;;
32393;SDS011;18853;45.426;9.206;2023-04-24T03:53:55;11.50;;;8.38;;
32393;SDS011;18853;45.426;9.206;2023-04-24T03:56:21;12.70;;;8.57;;
32393;SDS011;18853;45.426;9.206;2023-04-24T03:58:47;10.18;;;7.82;;
32393;SDS011;18853;45.426;9.206;2023-04-24T04:01:12;11.00;;;8.15;;
32393;SDS011;18853;45.426;9.206;2023-04-24T04:03:40;10.63;;;8.77;;
32393;SDS011;18853;45.426;9.206;2023-04-24T04:06:06;10.85;;;8.15;;
32393;SDS011;18853;45.426;9.206;2023-04-24T04:08:32;10.75;;;7.70;;
32393;SDS011;18853;45.426;9.206;2023-04-24T04:10:58;10.10;;;8.10;;
32393;SDS011;18853;45.426;9.206;2023-04-24T04:13:24;10.07;;;7.43;;
32393;SDS011;18853;45.426;9.206;2023-04-24T04:15:49;12.07;;;8.50;;
32393;SDS011;18853;45.426;9.206;2023-04-24T04:18:15;9.40;;;8.05;;
32393;SDS011;18853;45.426;9.206;2023-04-24T04:20:41;11.10;;;8.40;;
32393;SDS011;18853;45.426;9.206;2023-04-24T04:23:07;11.65;;;9.30;;
32393;SDS011;18853;45.426;9.206;2023-04-24T04:25:32;10.80;;;9.00;;
32393;SDS011;18853;45.426;9.206;2023-04-24T04:27:59;12.23;;;9.57;;
32393;SDS011;18853;45.426;9.206;2023-04-24T04:30:25;9.88;;;8.82;;
32393;SDS011;18853;45.426;9.206;2023-04-24T04:32:51;11.95;;;9.23;;
32393;SDS011;18853;45.426;9.206;2023-04-24T04:35:16;10.82;;;8.80;;
32393;SDS011;18853;45.426;9.206;2023-04-24T04:37:42;10.65;;;8.70;;
32393;SDS011;18853;45.426;9.206;2023-04-24T04:40:08;15.45;;;9.23;;
32393;SDS011;18853;45.426;9.206;2023-04-24T04:42:37;14.90;;;9.85;;
32393;SDS011;18853;45.426;9.206;2023-04-24T04:45:08;10.57;;;9.00;;
32393;SDS011;18853;45.426;9.206;2023-04-24T04:47:36;15.23;;;9.43;;
32393;SDS011;18853;45.426;9.206;2023-04-24T04:50:04;12.57;;;9.25;;
32393;SDS011;18853;45.426;9.206;2023-04-24T04:52:30;12.90;;;9.13;;
32393;SDS011;18853;45.426;9.206;2023-04-24T04:54:56;11.38;;;9.40;;
32393;SDS011;18853;45.426;9.206;2023-04-24T04:57:22;10.45;;;9.30;;
32393;SDS011;18853;45.426;9.206;2023-04-24T04:59:48;11.88;;;9.27;;
32393;SDS011;18853;45.426;9.206;2023-04-24T05:02:13;11.27;;;9.57;;
32393;SDS011;18853;45.426;9.206;2023-04-24T05:04:39;11.93;;;9.73;;
32393;SDS011;18853;45.426;9.206;2023-04-24T05:07:05;11.45;;;9.48;;
32393;SDS011;18853;45.426;9.206;2023-04-24T05:09:31;10.50;;;9.30;;
32393;SDS011;18853;45.426;9.206;2023-04-24T05:11:56;10.68;;;9.23;;
32393;SDS011;18853;45.426;9.206;2023-04-24T05:14:22;10.68;;;8.75;;
32393;SDS011;18853;45.426;9.206;2023-04-24T05:16:48;11.38;;;9.18;;
32393;SDS011;18853;45.426;9.206;2023-04-24T05:19:14;12.02;;;9.60;;
32393;SDS011;18853;45.426;9.206;2023-04-24T05:21:42;12.05;;;9.25;;
32393;SDS011;18853;45.426;9.206;2023-04-24T05:24:08;14.93;;;9.40;;
32393;SDS011;18853;45.426;9.206;2023-04-24T05:26:34;11.55;;;8.93;;
32393;SDS011;18853;45.426;9.206;2023-04-24T05:29:00;11.48;;;9.13;;
32393;SDS011;18853;45.426;9.206;2023-04-24T05:31:27;12.05;;;9.65;;
32393;SDS011;18853;45.426;9.206;2023-04-24T05:33:52;13.05;;;9.50;;
32393;SDS011;18853;45.426;9.206;2023-04-24T05:36:18;12.35;;;9.68;;
32393;SDS011;18853;45.426;9.206;2023-04-24T05:38:44;12.10;;;9.60;;
32393;SDS011;18853;45.426;9.206;2023-04-24T05:41:10;13.50;;;9.75;;
32393;SDS011;18853;45.426;9.206;2023-04-24T05:43:36;12.50;;;9.90;;
32393;SDS011;18853;45.426;9.206;2023-04-24T05:46:01;13.57;;;8.88;;
32393;SDS011;18853;45.426;9.206;2023-04-24T05:48:27;11.98;;;9.38;;
32393;SDS011;18853;45.426;9.206;2023-04-24T05:50:53;11.98;;;8.75;;
32393;SDS011;18853;45.426;9.206;2023-04-24T05:53:18;11.18;;;8.95;;
32393;SDS011;18853;45.426;9.206;2023-04-24T05:55:44;11.82;;;8.57;;
32393;SDS011;18853;45.426;9.206;2023-04-24T05:58:10;11.45;;;8.13;;
32393;SDS011;18853;45.426;9.206;2023-04-24T06:00:37;11.77;;;7.53;;
32393;SDS011;18853;45.426;9.206;2023-04-24T06:03:04;10.90;;;7.95;;
32393;SDS011;18853;45.426;9.206;2023-04-24T06:05:30;10.38;;;7.63;;
32393;SDS011;18853;45.426;9.206;2023-04-24T06:07:56;10.80;;;7.60;;
32393;SDS011;18853;45.426;9.206;2023-04-24T06:10:22;9.63;;;7.65;;
32393;SDS011;18853;45.426;9.206;2023-04-24T06:12:47;12.77;;;7.47;;
32393;SDS011;18853;45.426;9.206;2023-04-24T06:15:13;9.52;;;7.65;;
32393;SDS011;18853;45.426;9.206;2023-04-24T06:17:39;11.20;;;7.68;;
32393;SDS011;18853;45.426;9.206;2023-04-24T06:20:05;10.88;;;7.43;;
32393;SDS011;18853;45.426;9.206;2023-04-24T06:22:31;10.57;;;7.70;;
32393;SDS011;18853;45.426;9.206;2023-04-24T06:24:57;11.45;;;6.78;;
32393;SDS011;18853;45.426;9.206;2023-04-24T06:27:24;12.68;;;8.35;;
32393;SDS011;18853;45.426;9.206;2023-04-24T06:29:50;10.30;;;7.60;;
32393;SDS011;18853;45.426;9.206;2023-04-24T06:32:19;10.05;;;8.15;;
32393;SDS011;18853;45.426;9.206;2023-04-24T06:34:53;10.20;;;8.07;;
32393;SDS011;18853;45.426;9.206;2023-04-24T06:37:18;12.45;;;8.48;;
32393;SDS011;18853;45.426;9.206;2023-04-24T06:39:45;11.82;;;8.80;;
32393;SDS011;18853;45.426;9.206;2023-04-24T06:42:11;12.88;;;8.57;;
32393;SDS011;18853;45.426;9.206;2023-04-24T06:44:37;11.30;;;8.18;;
32393;SDS011;18853;45.426;9.206;2023-04-24T06:47:11;11.00;;;7.53;;
32393;SDS011;18853;45.426;9.206;2023-04-24T06:49:40;7.20;;;5.57;;
32393;SDS011;18853;45.426;9.206;2023-04-24T06:52:06;9.32;;;5.93;;
32393;SDS011;18853;45.426;9.206;2023-04-24T06:54:32;9.43;;;5.40;;
32393;SDS011;18853;45.426;9.206;2023-04-24T06:56:58;8.43;;;5.55;;
32393;SDS011;18853;45.426;9.206;2023-04-24T06:59:26;8.02;;;4.88;;
32393;SDS011;18853;45.426;9.206;2023-04-24T07:01:52;7.97;;;4.75;;
32393;SDS011;18853;45.426;9.206;2023-04-24T07:04:18;8.40;;;4.47;;
32393;SDS011;18853;45.426;9.206;2023-04-24T07:06:47;8.02;;;5.00;;
32393;SDS011;18853;45.426;9.206;2023-04-24T07:09:14;7.18;;;4.55;;
32393;SDS011;18853;45.426;9.206;2023-04-24T07:11:41;8.18;;;4.60;;
32393;SDS011;18853;45.426;9.206;2023-04-24T07:14:07;32.17;;;21.33;;
32393;SDS011;18853;45.426;9.206;2023-04-24T07:16:33;27.27;;;19.92;;
32393;SDS011;18853;45.426;9.206;2023-04-24T07:18:58;10.45;;;5.85;;
32393;SDS011;18853;45.426;9.206;2023-04-24T07:21:25;13.18;;;7.15;;
32393;SDS011;18853;45.426;9.206;2023-04-24T07:23:50;10.25;;;5.95;;
32393;SDS011;18853;45.426;9.206;2023-04-24T07:26:16;10.85;;;6.40;;
32393;SDS011;18853;45.426;9.206;2023-04-24T07:28:42;10.13;;;6.63;;
32393;SDS011;18853;45.426;9.206;2023-04-24T07:31:08;10.32;;;5.80;;
32393;SDS011;18853;45.426;9.206;2023-04-24T07:33:35;7.38;;;4.53;;
32393;SDS011;18853;45.426;9.206;2023-04-24T07:36:01;7.38;;;4.65;;
32393;SDS011;18853;45.426;9.206;2023-04-24T07:38:29;6.85;;;4.22;;
32393;SDS011;18853;45.426;9.206;2023-04-24T07:40:55;5.15;;;3.90;;
32393;SDS011;18853;45.426;9.206;2023-04-24T07:43:21;7.65;;;4.80;;
32393;SDS011;18853;45.426;9.206;2023-04-24T07:45:47;7.07;;;4.57;;
32393;SDS011;18853;45.426;9.206;2023-04-24T07:48:12;6.32;;;4.65;;
32393;SDS011;18853;45.426;9.206;2023-04-24T07:50:41;7.05;;;4.63;;
32393;SDS011;18853;45.426;9.206;2023-04-24T07:53:07;8.18;;;4.90;;
32393;SDS011;18853;45.426;9.206;2023-04-24T07:55:33;8.82;;;5.30;;
32393;SDS011;18853;45.426;9.206;2023-04-24T07:57:58;7.78;;;6.10;;
32393;SDS011;18853;45.426;9.206;2023-04-24T08:00:24;10.35;;;6.93;;
32393;SDS011;18853;45.426;9.206;2023-04-24T08:02:50;8.48;;;7.00;;
32393;SDS011;18853;45.426;9.206;2023-04-24T08:05:16;9.25;;;6.50;;
32393;SDS011;18853;45.426;9.206;2023-04-24T08:07:42;12.55;;;7.50;;
32393;SDS011;18853;45.426;9.206;2023-04-24T08:10:09;6.97;;;5.55;;
32393;SDS011;18853;45.426;9.206;2023-04-24T08:12:36;11.50;;;7.88;;
32393;SDS011;18853;45.426;9.206;2023-04-24T08:15:03;9.20;;;7.95;;
32393;SDS011;18853;45.426;9.206;2023-04-24T08:17:30;9.38;;;6.97;;
32393;SDS011;18853;45.426;9.206;2023-04-24T08:19:55;9.63;;;6.30;;
32393;SDS011;18853;45.426;9.206;2023-04-24T08:22:26;7.97;;;5.88;;
32393;SDS011;18853;45.426;9.206;2023-04-24T08:24:53;8.85;;;6.97;;
32393;SDS011;18853;45.426;9.206;2023-04-24T08:27:19;10.38;;;7.03;;
32393;SDS011;18853;45.426;9.206;2023-04-24T08:29:44;8.77;;;6.18;;
32393;SDS011;18853;45.426;9.206;2023-04-24T08:32:10;7.03;;;6.30;;
32393;SDS011;18853;45.426;9.206;2023-04-24T08:34:36;8.20;;;6.82;;
32393;SDS011;18853;45.426;9.206;2023-04-24T08:37:02;8.38;;;7.22;;
32393;SDS011;18853;45.426;9.206;2023-04-24T08:39:28;9.90;;;7.18;;
32393;SDS011;18853;45.426;9.206;2023-04-24T08:41:54;8.38;;;6.50;;
32393;SDS011;18853;45.426;9.206;2023-04-24T08:44:21;7.55;;;5.93;;
32393;SDS011;18853;45.426;9.206;2023-04-24T08:46:50;8.93;;;6.38;;
32393;SDS011;18853;45.426;9.206;2023-04-24T08:49:17;7.22;;;5.50;;
32393;SDS011;18853;45.426;9.206;2023-04-24T08:51:43;7.55;;;4.78;;
32393;SDS011;18853;45.426;9.206;2023-04-24T08:54:11;7.03;;;4.03;;
32393;SDS011;18853;45.426;9.206;2023-04-24T08:56:37;7.32;;;3.53;;
32393;SDS011;18853;45.426;9.206;2023-04-24T08:59:05;5.32;;;2.72;;
32393;SDS011;18853;45.426;9.206;2023-04-24T09:01:32;5.97;;;3.28;;
32393;SDS011;18853;45.426;9.206;2023-04-24T09:04:03;6.15;;;3.80;;
32393;SDS011;18853;45.426;9.206;2023-04-24T09:06:30;7.97;;;3.20;;
32393;SDS011;18853;45.426;9.206;2023-04-24T09:08:57;5.75;;;3.08;;
32393;SDS011;18853;45.426;9.206;2023-04-24T09:11:29;5.00;;;3.05;;
32393;SDS011;18853;45.426;9.206;2023-04-24T09:13:56;8.50;;;3.42;;
32393;SDS011;18853;45.426;9.206;2023-04-24T09:16:22;7.53;;;3.60;;
32393;SDS011;18853;45.426;9.206;2023-04-24T09:18:51;6.80;;;3.33;;
32393;SDS011;18853;45.426;9.206;2023-04-24T09:21:18;4.60;;;2.92;;
32393;SDS011;18853;45.426;9.206;2023-04-24T09:23:46;4.80;;;2.97;;
32393;SDS011;18853;45.426;9.206;2023-04-24T09:26:11;10.02;;;3.40;;
32393;SDS011;18853;45.426;9.206;2023-04-24T09:28:39;4.88;;;2.70;;
32393;SDS011;18853;45.426;9.206;2023-04-24T09:31:12;6.57;;;2.97;;
32393;SDS011;18853;45.426;9.206;2023-04-24T09:33:41;5.47;;;3.38;;
32393;SDS011;18853;45.426;9.206;2023-04-24T09:36:35;6.57;;;3.40;;
32393;SDS011;18853;45.426;9.206;2023-04-24T09:39:06;6.28;;;3.13;;
32393;SDS011;18853;45.426;9.206;2023-04-24T09:41:33;6.93;;;3.85;;
32393;SDS011;18853;45.426;9.206;2023-04-24T09:46:48;4.95;;;3.63;;
32393;SDS011;18853;45.426;9.206;2023-04-24T09:49:16;5.82;;;3.75;;
32393;SDS011;18853;45.426;9.206;2023-04-24T09:51:47;5.90;;;3.70;;
32393;SDS011;18853;45.426;9.206;2023-04-24T09:54:13;5.25;;;3.50;;
32393;SDS011;18853;45.426;9.206;2023-04-24T09:56:44;5.90;;;3.50;;
32393;SDS011;18853;45.426;9.206;2023-04-24T09:59:11;5.05;;;3.38;;
32393;SDS011;18853;45.426;9.206;2023-04-24T10:01:38;4.22;;;3.03;;
32393;SDS011;18853;45.426;9.206;2023-04-24T10:04:14;4.70;;;2.88;;
32393;SDS011;18853;45.426;9.206;2023-04-24T10:06:45;3.70;;;2.80;;
32393;SDS011;18853;45.426;9.206;2023-04-24T10:09:12;4.45;;;2.45;;
32393;SDS011;18853;45.426;9.206;2023-04-24T10:11:46;6.22;;;3.17;;
32393;SDS011;18853;45.426;9.206;2023-04-24T10:14:14;4.05;;;2.95;;
32393;SDS011;18853;45.426;9.206;2023-04-24T10:16:46;5.55;;;3.28;;
32393;SDS011;18853;45.426;9.206;2023-04-24T10:19:12;5.28;;;3.47;;
32393;SDS011;18853;45.426;9.206;2023-04-24T10:21:40;5.93;;;3.50;;
32393;SDS011;18853;45.426;9.206;2023-04-24T10:24:10;5.15;;;3.40;;
32393;SDS011;18853;45.426;9.206;2023-04-24T10:26:37;4.30;;;3.00;;
32393;SDS011;18853;45.426;9.206;2023-04-24T10:29:04;4.65;;;3.35;;
32393;SDS011;18853;45.426;9.206;2023-04-24T10:31:36;5.60;;;3.08;;
32393;SDS011;18853;45.426;9.206;2023-04-24T10:34:03;3.90;;;2.10;;
32393;SDS011;18853;45.426;9.206;2023-04-24T10:36:30;2.65;;;1.27;;
32393;SDS011;18853;45.426;9.206;2023-04-24T10:38:58;3.22;;;1.60;;
32393;SDS011;18853;45.426;9.206;2023-04-24T10:41:26;4.15;;;1.25;;
32393;SDS011;18853;45.426;9.206;2023-04-24T10:44:05;2.75;;;1.55;;
32393;SDS011;18853;45.426;9.206;2023-04-24T10:46:31;2.70;;;1.50;;
32393;SDS011;18853;45.426;9.206;2023-04-24T10:48:57;3.42;;;2.15;;
32393;SDS011;18853;45.426;9.206;2023-04-24T10:51:23;4.97;;;3.10;;
32393;SDS011;18853;45.426;9.206;2023-04-24T10:53:51;4.50;;;3.20;;
32393;SDS011;18853;45.426;9.206;2023-04-24T10:56:16;3.90;;;2.92;;
32393;SDS011;18853;45.426;9.206;2023-04-24T10:58:49;4.90;;;2.70;;
32393;SDS011;18853;45.426;9.206;2023-04-24T11:01:30;3.35;;;2.17;;
32393;SDS011;18853;45.426;9.206;2023-04-24T11:04:00;2.92;;;2.42;;
32393;SDS011;18853;45.426;9.206;2023-04-24T11:06:31;3.13;;;2.05;;
32393;SDS011;18853;45.426;9.206;2023-04-24T11:09:08;3.03;;;1.85;;
32393;SDS011;18853;45.426;9.206;2023-04-24T11:11:37;4.40;;;2.70;;
32393;SDS011;18853;45.426;9.206;2023-04-24T11:14:09;3.70;;;1.88;;
32393;SDS011;18853;45.426;9.206;2023-04-24T11:16:38;4.32;;;2.28;;
32393;SDS011;18853;45.426;9.206;2023-04-24T11:19:20;3.78;;;2.38;;
32393;SDS011;18853;45.426;9.206;2023-04-24T11:29:39;3.72;;;2.17;;
32393;SDS011;18853;45.426;9.206;2023-04-24T11:34:48;2.75;;;1.70;;
32393;SDS011;18853;45.426;9.206;2023-04-24T11:37:16;2.78;;;1.73;;
32393;SDS011;18853;45.426;9.206;2023-04-24T11:39:42;2.85;;;1.50;;
32393;SDS011;18853;45.426;9.206;2023-04-24T11:42:08;2.70;;;1.60;;
32393;SDS011;18853;45.426;9.206;2023-04-24T11:44:34;2.15;;;1.00;;
32393;SDS011;18853;45.426;9.206;2023-04-24T11:47:05;2.80;;;1.10;;
32393;SDS011;18853;45.426;9.206;2023-04-24T11:49:32;2.55;;;1.05;;
32393;SDS011;18853;45.426;9.206;2023-04-24T11:51:57;2.17;;;1.00;;
32393;SDS011;18853;45.426;9.206;2023-04-24T11:54:25;3.90;;;1.00;;
32393;SDS011;18853;45.426;9.206;2023-04-24T11:56:51;2.15;;;0.70;;
32393;SDS011;18853;45.426;9.206;2023-04-24T11:59:17;2.30;;;0.70;;
32393;SDS011;18853;45.426;9.206;2023-04-24T12:01:46;1.80;;;1.00;;
32393;SDS011;18853;45.426;9.206;2023-04-24T12:04:12;1.23;;;0.70;;
32393;SDS011;18853;45.426;9.206;2023-04-24T12:06:39;1.48;;;0.70;;
32393;SDS011;18853;45.426;9.206;2023-04-24T12:09:04;2.33;;;0.88;;
32393;SDS011;18853;45.426;9.206;2023-04-24T12:11:31;1.55;;;0.70;;
32393;SDS011;18853;45.426;9.206;2023-04-24T12:13:57;2.67;;;0.80;;
32393;SDS011;18853;45.426;9.206;2023-04-24T12:16:23;2.70;;;0.73;;
32393;SDS011;18853;45.426;9.206;2023-04-24T12:18:51;0.85;;;0.40;;
32393;SDS011;18853;45.426;9.206;2023-04-24T12:21:23;1.00;;;0.60;;
32393;SDS011;18853;45.426;9.206;2023-04-24T12:23:54;1.73;;;0.50;;
32393;SDS011;18853;45.426;9.206;2023-04-24T12:26:20;1.00;;;0.80;;
32393;SDS011;18853;45.426;9.206;2023-04-24T12:28:48;1.50;;;0.50;;
32393;SDS011;18853;45.426;9.206;2023-04-24T12:31:15;1.08;;;0.47;;
32393;SDS011;18853;45.426;9.206;2023-04-24T12:33:41;1.85;;;0.70;;
32393;SDS011;18853;45.426;9.206;2023-04-24T12:36:11;1.70;;;0.60;;
32393;SDS011;18853;45.426;9.206;2023-04-24T12:38:43;1.08;;;0.40;;
32393;SDS011;18853;45.426;9.206;2023-04-24T12:41:12;1.38;;;0.80;;
32393;SDS011;18853;45.426;9.206;2023-04-24T12:43:38;1.33;;;0.47;;
32393;SDS011;18853;45.426;9.206;2023-04-24T12:46:16;0.60;;;0.40;;
32393;SDS011;18853;45.426;9.206;2023-04-24T12:48:42;1.15;;;0.50;;
32393;SDS011;18853;45.426;9.206;2023-04-24T12:51:08;1.20;;;0.40;;
32393;SDS011;18853;45.426;9.206;2023-04-24T12:53:33;1.65;;;0.40;;
32393;SDS011;18853;45.426;9.206;2023-04-24T12:55:59;3.47;;;0.40;;
32393;SDS011;18853;45.426;9.206;2023-04-24T12:58:25;2.20;;;0.60;;
32393;SDS011;18853;45.426;9.206;2023-04-24T13:00:51;1.20;;;0.40;;
32393;SDS011;18853;45.426;9.206;2023-04-24T13:03:16;1.42;;;0.55;;
32393;SDS011;18853;45.426;9.206;2023-04-24T13:05:43;0.60;;;0.30;;
32393;SDS011;18853;45.426;9.206;2023-04-24T13:08:09;0.45;;;0.20;;
32393;SDS011;18853;45.426;9.206;2023-04-24T13:10:35;1.33;;;0.30;;
32393;SDS011;18853;45.426;9.206;2023-04-24T13:13:01;1.75;;;0.20;;
32393;SDS011;18853;45.426;9.206;2023-04-24T13:15:28;0.30;;;0.10;;
32393;SDS011;18853;45.426;9.206;2023-04-24T13:17:54;0.47;;;0.20;;
32393;SDS011;18853;45.426;9.206;2023-04-24T13:20:20;0.20;;;0.10;;
32393;SDS011;18853;45.426;9.206;2023-04-24T13:22:45;0.50;;;0.20;;
32393;SDS011;18853;45.426;9.206;2023-04-24T13:25:11;0.93;;;0.30;;
32393;SDS011;18853;45.426;9.206;2023-04-24T13:27:40;1.85;;;0.20;;
32393;SDS011;18853;45.426;9.206;2023-04-24T13:30:06;2.38;;;0.20;;
32393;SDS011;18853;45.426;9.206;2023-04-24T13:32:32;1.58;;;0.50;;
32393;SDS011;18853;45.426;9.206;2023-04-24T13:34:58;0.98;;;0.30;;
32393;SDS011;18853;45.426;9.206;2023-04-24T13:37:24;0.90;;;0.40;;
32393;SDS011;18853;45.426;9.206;2023-04-24T13:39:50;1.60;;;0.28;;
32393;SDS011;18853;45.426;9.206;2023-04-24T13:42:15;0.50;;;0.30;;
32393;SDS011;18853;45.426;9.206;2023-04-24T13:44:41;0.98;;;0.32;;
32393;SDS011;18853;45.426;9.206;2023-04-24T13:47:07;1.55;;;0.30;;
32393;SDS011;18853;45.426;9.206;2023-04-24T13:49:33;1.13;;;0.30;;
32393;SDS011;18853;45.426;9.206;2023-04-24T13:51:58;1.40;;;0.35;;
32393;SDS011;18853;45.426;9.206;2023-04-24T13:54:24;0.57;;;0.20;;
32393;SDS011;18853;45.426;9.206;2023-04-24T13:56:51;0.47;;;0.30;;
32393;SDS011;18853;45.426;9.206;2023-04-24T13:59:17;0.17;;;0.10;;
32393;SDS011;18853;45.426;9.206;2023-04-24T14:01:47;1.42;;;0.20;;
32393;SDS011;18853;45.426;9.206;2023-04-24T14:04:12;0.85;;;0.10;;
32393;SDS011;18853;45.426;9.206;2023-04-24T14:06:38;1.48;;;0.22;;
32393;SDS011;18853;45.426;9.206;2023-04-24T14:09:04;0.20;;;0.10;;
32393;SDS011;18853;45.426;9.206;2023-04-24T14:11:29;0.43;;;0.10;;
32393;SDS011;18853;45.426;9.206;2023-04-24T14:13:55;0.10;;;0.10;;
32393;SDS011;18853;45.426;9.206;2023-04-24T14:16:23;0.28;;;0.10;;
32393;SDS011;18853;45.426;9.206;2023-04-24T14:18:50;0.60;;;0.10;;
32393;SDS011;18853;45.426;9.206;2023-04-24T14:21:15;0.47;;;0.03;;
32393;SDS011;18853;45.426;9.206;2023-04-24T14:23:41;0.30;;;0.15;;
32393;SDS011;18853;45.426;9.206;2023-04-24T14:26:07;0.70;;;0.10;;
32393;SDS011;18853;45.426;9.206;2023-04-24T14:28:32;0.32;;;0.20;;
32393;SDS011;18853;45.426;9.206;2023-04-24T14:30:59;0.82;;;0.30;;
32393;SDS011;18853;45.426;9.206;2023-04-24T14:33:24;0.82;;;0.20;;
32393;SDS011;18853;45.426;9.206;2023-04-24T14:35:50;0.40;;;0.10;;
32393;SDS011;18853;45.426;9.206;2023-04-24T14:38:15;0.35;;;0.30;;
32393;SDS011;18853;45.426;9.206;2023-04-24T14:40:41;0.40;;;0.10;;
32393;SDS011;18853;45.426;9.206;2023-04-24T14:43:07;1.08;;;0.20;;
32393;SDS011;18853;45.426;9.206;2023-04-24T14:45:32;1.02;;;0.20;;
32393;SDS011;18853;45.426;9.206;2023-04-24T14:47:58;1.13;;;0.30;;
32393;SDS011;18853;45.426;9.206;2023-04-24T14:50:24;0.30;;;0.20;;
32393;SDS011;18853;45.426;9.206;2023-04-24T14:52:53;1.75;;;0.30;;